CW2157 Saint Michaels MD US current weather conditions

sailwx.info

Wind from 162

Air temperature 31.7° C
Dewpoint 25.7° C

Last reported at 2020-Aug-10 15:02 UTC.
Time now 2020-Aug-10 15:25 UTC

Location: N 38°47' W 076°15'.
View on Google Maps.

See reports from other nearby stations

  
Tides and Currents Weather Stations Pressure Air Temp Water Temp Dewpoint Dewpoint Depression Visibility Wind Speed Wind Dir Waves Ship Positions
date/time (UTC)wind fromknots sea level pressurealtimeterstation pressurevisibilityair tempwater tempwave heightnotes
2020-Aug-10 15:07 162 32.2
2020-Aug-10 15:02 162 31.7
2020-Aug-10 14:57 162 1 gusting 2 31.7
2020-Aug-10 14:52 162 31.7
2020-Aug-10 14:47 162 0 gusting 2 31.7
2020-Aug-10 14:42 162 1 gusting 2 31.7
2020-Aug-10 14:37 162 2 gusting 4 31.7
2020-Aug-10 14:32 162 0 gusting 1 31.1
2020-Aug-10 14:27 162 31.1
2020-Aug-10 14:22 162 31.1
2020-Aug-10 14:17 162 1 gusting 2 31.1
2020-Aug-10 14:12 162 1 gusting 2 31.1
2020-Aug-10 14:07 161 1 gusting 4 31.1
2020-Aug-10 14:02 160 2 gusting 4 30.6
2020-Aug-10 13:57 185 0 gusting 2 30.6
2020-Aug-10 13:52 185 0 gusting 1 30.6
2020-Aug-10 13:47 185 30.6
2020-Aug-10 13:42 185 30.6
2020-Aug-10 13:37 185 30.0
2020-Aug-10 13:32 185 1 gusting 2 30.0
2020-Aug-10 13:27 185 1 gusting 4 30.0
2020-Aug-10 13:22 185 0 gusting 2 29.4
2020-Aug-10 13:17 194 1 gusting 4 29.4
2020-Aug-10 13:12 212 0 gusting 2 29.4
2020-Aug-10 13:07 212 2 gusting 2 28.9
2020-Aug-10 13:02 212 0 gusting 2 28.9
2020-Aug-10 12:57 212 1 gusting 2 28.3
2020-Aug-10 12:52 212 4 gusting 5 28.3
2020-Aug-10 12:47 187 2 gusting 4 28.3
2020-Aug-10 12:42 197 4 gusting 5 27.8
2020-Aug-10 12:37 224 0 gusting 5 27.8
2020-Aug-10 12:32 211 2 gusting 4 27.2
2020-Aug-10 12:27 189 3 gusting 5 27.2
2020-Aug-10 12:22 190 4 gusting 6 27.2
2020-Aug-10 12:17 219 3 gusting 5 26.7
2020-Aug-10 12:12 208 2 gusting 5 26.7
2020-Aug-10 12:07 214 4 gusting 5 26.1
2020-Aug-10 12:02 203 4 gusting 5 26.1
2020-Aug-10 11:57 208 4 gusting 5 26.1
2020-Aug-10 11:52 217 4 gusting 5 26.1
2020-Aug-10 11:47 203 4 gusting 6 25.6
2020-Aug-10 11:42 206 3 gusting 6 25.6
2020-Aug-10 11:37 212 3 gusting 4 25.6
2020-Aug-10 11:32 205 4 gusting 5 25.6
2020-Aug-10 11:27 208 1 gusting 2 25.0
2020-Aug-10 11:22 216 2 gusting 4 25.0
2020-Aug-10 11:17 219 2 gusting 2 25.0
2020-Aug-10 11:12 224 2 gusting 4 25.0
2020-Aug-10 11:07 225 2 gusting 4 25.0
2020-Aug-10 11:02 208 2 gusting 4 24.4
2020-Aug-10 10:57 205 1 gusting 2 24.4
2020-Aug-10 10:52 205 2 gusting 2 24.4
2020-Aug-10 10:47 205 0 gusting 2 24.4
2020-Aug-10 10:42 205 0 gusting 2 24.4
2020-Aug-10 10:37 205 1 gusting 2 24.4
2020-Aug-10 10:32 220 1 gusting 2 24.4
2020-Aug-10 10:27 220 0 gusting 2 24.4
2020-Aug-10 10:22 220 24.4
2020-Aug-10 10:17 220 24.4
2020-Aug-10 10:12 220 0 gusting 0 24.4
2020-Aug-10 10:07 220 0 gusting 2 24.4
2020-Aug-10 10:02 220 0 gusting 2 25.0
2020-Aug-10 09:57 220 1 gusting 4 24.4
2020-Aug-10 09:52 229 3 gusting 5 24.4
2020-Aug-10 09:47 217 4 gusting 6 24.4
2020-Aug-10 09:42 181 2 gusting 5 24.4
2020-Aug-10 09:37 202 4 gusting 5 25.0
2020-Aug-10 09:32 200 4 gusting 6 25.0
2020-Aug-10 09:27 193 4 gusting 6 25.0
2020-Aug-10 09:22 209 4 gusting 5 25.0
2020-Aug-10 09:17 217 2 gusting 4 25.0
2020-Aug-10 09:12 218 2 gusting 5 25.0
2020-Aug-10 09:07 211 1 gusting 2 25.0
2020-Aug-10 09:02 229 2 gusting 4 25.0
2020-Aug-10 08:57 224 2 gusting 5 25.0
2020-Aug-10 08:52 218 4 gusting 6 25.0
2020-Aug-10 08:47 214 4 gusting 6 25.0
2020-Aug-10 08:42 213 4 gusting 6 25.0
2020-Aug-10 08:37 225 5 gusting 6 25.0
2020-Aug-10 08:32 229 5 gusting 6 25.0
2020-Aug-10 08:27 207 5 gusting 6 25.0
2020-Aug-10 08:22 227 4 gusting 7 25.0
2020-Aug-10 08:17 221 5 gusting 7 25.0
2020-Aug-10 08:12 209 5 gusting 6 25.0
2020-Aug-10 08:07 193 5 gusting 6 25.0
2020-Aug-10 08:02 219 6 gusting 8 25.0
2020-Aug-10 07:57 223 6 gusting 8 25.0
2020-Aug-10 07:52 216 6 gusting 7 25.0
2020-Aug-10 07:47 222 5 gusting 7 25.0
2020-Aug-10 07:42 214 6 gusting 8 25.0
2020-Aug-10 07:37 210 5 gusting 7 25.0
2020-Aug-10 07:32 218 6 gusting 8 25.0
2020-Aug-10 07:27 214 6 gusting 7 25.0
2020-Aug-10 07:22 206 6 gusting 8 25.0
2020-Aug-10 07:17 207 6 gusting 10 25.0
2020-Aug-10 07:12 210 6 gusting 10 25.0
2020-Aug-10 07:07 202 7 gusting 8 25.0
2020-Aug-10 07:02 206 6 gusting 8 25.0
2020-Aug-10 06:57 206 6 gusting 10 25.0
2020-Aug-10 06:52 203 6 gusting 8 25.0
2020-Aug-10 06:47 203 6 gusting 7 25.0
2020-Aug-10 06:42 207 6 gusting 8 25.6
2020-Aug-10 06:37 206 7 gusting 10 25.6
2020-Aug-10 06:32 207 7 gusting 10 25.6
2020-Aug-10 06:27 212 8 gusting 10 25.6
2020-Aug-10 06:22 212 8 gusting 12 25.6
2020-Aug-10 06:17 203 8 gusting 12 25.6
2020-Aug-10 06:12 200 8 gusting 11 25.6
2020-Aug-10 06:07 201 8 gusting 10 25.6
2020-Aug-10 06:02 197 8 gusting 10 25.6
2020-Aug-10 05:57 205 6 gusting 10 25.6
2020-Aug-10 05:52 194 6 gusting 10 25.6
2020-Aug-10 05:47 199 6 gusting 10 25.6
2020-Aug-10 05:42 205 7 gusting 10 25.6
2020-Aug-10 05:37 193 6 gusting 10 25.6
2020-Aug-10 05:32 188 6 gusting 8 25.6
2020-Aug-10 05:27 195 7 gusting 11 26.1
2020-Aug-10 05:22 200 7 gusting 10 26.1
2020-Aug-10 05:17 194 6 gusting 8 26.1
2020-Aug-10 05:12 204 6 gusting 8 26.1
2020-Aug-10 05:07 201 6 gusting 14 26.1
2020-Aug-10 05:02 198 6 gusting 10 26.1
2020-Aug-10 04:57 197 8 gusting 12 26.1
2020-Aug-10 04:52 204 8 gusting 13 26.1
2020-Aug-10 04:47 205 9 gusting 12 26.1
2020-Aug-10 04:42 199 8 gusting 13 26.1
2020-Aug-10 04:37 196 8 gusting 11 26.1
2020-Aug-10 04:32 199 8 gusting 10 26.1
2020-Aug-10 04:27 197 8 gusting 11 26.1
2020-Aug-10 04:22 207 10 gusting 13 26.1
2020-Aug-10 04:17 205 8 gusting 13 26.1
2020-Aug-10 04:12 203 8 gusting 12 26.7
2020-Aug-10 04:07 207 7 gusting 10 26.7
2020-Aug-10 04:02 206 7 gusting 8 26.7
2020-Aug-10 03:57 191 6 gusting 10 26.7
2020-Aug-10 03:52 188 7 gusting 10 26.7
2020-Aug-10 03:47 191 7 gusting 10 26.7
2020-Aug-10 03:42 199 7 gusting 11 26.7
2020-Aug-10 03:37 203 7 gusting 10 26.7
2020-Aug-10 03:32 190 7 gusting 10 26.7
2020-Aug-10 03:27 194 6 gusting 10 26.7
2020-Aug-10 03:22 193 4 gusting 7 26.7
2020-Aug-10 03:17 197 5 gusting 8 26.7
2020-Aug-10 03:12 183 5 gusting 8 26.7
2020-Aug-10 03:07 186 6 gusting 10 26.7
2020-Aug-10 03:02 182 5 gusting 10 27.2
2020-Aug-10 02:57 192 6 gusting 10 27.2
2020-Aug-10 02:52 191 6 gusting 11 27.2
2020-Aug-10 02:47 196 6 gusting 10 27.2
2020-Aug-10 02:42 183 6 gusting 12 27.2
2020-Aug-10 02:37 192 6 gusting 8 27.2
2020-Aug-10 02:32 182 5 gusting 8 27.2
2020-Aug-10 02:27 184 5 gusting 10 27.2
2020-Aug-10 02:22 177 4 gusting 8 27.2
2020-Aug-10 02:17 176 6 gusting 10 27.2
2020-Aug-10 02:12 182 6 gusting 10 27.2
2020-Aug-10 02:07 183 6 gusting 13 27.2
2020-Aug-10 02:02 183 4 gusting 10 27.2
2020-Aug-10 01:57 164 6 gusting 10 27.2
2020-Aug-10 01:52 186 5 gusting 10 27.2
2020-Aug-10 01:47 181 6 gusting 8 27.2
2020-Aug-10 01:42 185 6 gusting 10 27.2
2020-Aug-10 01:37 184 6 gusting 11 27.8
2020-Aug-10 01:32 186 5 gusting 6 27.8
2020-Aug-10 01:27 163 4 gusting 12 27.8
2020-Aug-10 01:22 179 5 gusting 12 27.8
2020-Aug-10 01:17 179 6 gusting 11 27.8
2020-Aug-10 01:12 181 6 gusting 10 27.8
2020-Aug-10 01:07 182 6 gusting 11 27.8
2020-Aug-10 01:02 170 6 gusting 11 27.8
2020-Aug-10 00:57 185 5 gusting 10 27.8
2020-Aug-10 00:52 186 6 gusting 10 27.8
2020-Aug-10 00:47 188 6 gusting 8 27.8
2020-Aug-10 00:42 179 5 gusting 8 27.8
2020-Aug-10 00:37 190 6 gusting 11 27.8
2020-Aug-10 00:32 151 7 gusting 13 28.3
2020-Aug-10 00:27 184 5 gusting 7 28.3
2020-Aug-10 00:22 176 4 gusting 8 28.3
2020-Aug-10 00:17 185 6 gusting 10 28.3
2020-Aug-10 00:12 190 6 gusting 8 28.3
2020-Aug-10 00:07 189 6 gusting 11 28.3
2020-Aug-10 00:02 190 6 gusting 10 28.3
2020-Aug-09 23:57 180 7 gusting 11 28.3
2020-Aug-09 23:52 180 8 gusting 13 28.9
2020-Aug-09 23:47 155 6 gusting 10 28.9
2020-Aug-09 23:42 178 6 gusting 10 28.9
2020-Aug-09 23:37 171 6 gusting 11 28.9
2020-Aug-09 23:32 174 5 gusting 12 28.9
2020-Aug-09 23:27 179 6 gusting 10 28.9
2020-Aug-09 23:22 175 5 gusting 10 29.4
2020-Aug-09 23:17 196 6 gusting 12 29.4
2020-Aug-09 23:12 183 7 gusting 12 29.4
2020-Aug-09 23:07 177 6 gusting 10 29.4
2020-Aug-09 23:02 190 7 gusting 12 29.4
2020-Aug-09 22:57 202 6 gusting 10 30.0
2020-Aug-09 22:52 197 6 gusting 8 30.0
2020-Aug-09 22:47 202 6 gusting 8 30.0
2020-Aug-09 22:42 200 4 gusting 7 30.0
2020-Aug-09 22:37 185 6 gusting 8 30.0
2020-Aug-09 22:32 194 5 gusting 8 30.6
2020-Aug-09 22:27 182 6 gusting 10 30.6
2020-Aug-09 22:22 172 5 gusting 8 30.6
2020-Aug-09 22:17 177 5 gusting 10 31.1
2020-Aug-09 22:12 200 6 gusting 10 31.1
2020-Aug-09 22:07 200 7 gusting 11 31.1
2020-Aug-09 22:02 207 6 gusting 10 31.7
2020-Aug-09 21:57 195 6 gusting 10 31.7
2020-Aug-09 21:52 169 6 gusting 11 31.7
2020-Aug-09 21:47 177 6 gusting 10 31.7
2020-Aug-09 21:42 200 7 gusting 10 31.7
2020-Aug-09 21:37 204 6 gusting 10 31.7
2020-Aug-09 21:32 201 5 gusting 7 31.7
2020-Aug-09 21:27 202 5 gusting 7 31.7
2020-Aug-09 21:22 182 6 gusting 10 31.7
2020-Aug-09 21:17 194 5 gusting 7 31.7
2020-Aug-09 21:12 179 6 gusting 10 31.7
2020-Aug-09 21:07 195 6 gusting 10 31.7
2020-Aug-09 21:02 180 7 gusting 10 32.2
2020-Aug-09 20:57 172 6 gusting 10 32.2
2020-Aug-09 20:52 203 7 gusting 11 31.7
2020-Aug-09 20:47 199 8 gusting 11 31.7
2020-Aug-09 20:42 200 7 gusting 12 31.7
2020-Aug-09 20:37 193 6 gusting 12 31.7
2020-Aug-09 20:32 198 6 gusting 8 31.7
2020-Aug-09 20:27 178 6 gusting 7 31.7
2020-Aug-09 20:22 173 5 gusting 6 31.7
2020-Aug-09 20:17 204 6 gusting 8 31.7
2020-Aug-09 20:12 209 8 gusting 10 32.2
2020-Aug-09 20:07 203 9 gusting 13 32.2
2020-Aug-09 20:02 206 10 gusting 12 32.2
2020-Aug-09 19:57 213 8 gusting 11 32.8
2020-Aug-09 19:52 221 8 gusting 12 32.8
2020-Aug-09 19:47 196 8 gusting 10 32.2
2020-Aug-09 19:42 209 7 gusting 10 32.8
2020-Aug-09 19:37 205 5 gusting 7 32.8
2020-Aug-09 19:32 177 6 gusting 10 32.2
2020-Aug-09 19:27 209 8 gusting 10 32.2
2020-Aug-09 19:22 195 6 gusting 10 32.2
2020-Aug-09 19:17 185 7 gusting 12 32.2
2020-Aug-09 19:12 172 8 gusting 12 32.2
2020-Aug-09 19:07 195 7 gusting 11 32.2
2020-Aug-09 19:02 192 6 gusting 10 32.2
2020-Aug-09 18:57 207 7 gusting 10 32.2
2020-Aug-09 18:52 182 7 gusting 10 32.2
2020-Aug-09 18:47 203 5 gusting 10 32.2
2020-Aug-09 18:42 180 5 gusting 8 32.2
2020-Aug-09 18:37 166 5 gusting 8 31.7
2020-Aug-09 18:32 208 6 gusting 10 31.7
2020-Aug-09 18:27 204 5 gusting 7 31.7
2020-Aug-09 18:22 193 5 gusting 7 31.7
2020-Aug-09 18:17 200 6 gusting 10 31.7
2020-Aug-09 18:12 196 6 gusting 7 31.7
2020-Aug-09 18:07 182 6 gusting 10 31.7
2020-Aug-09 18:02 172 6 gusting 8 31.7
2020-Aug-09 17:57 186 6 gusting 10 31.7
2020-Aug-09 17:52 211 5 gusting 10 31.7
2020-Aug-09 17:47 208 6 gusting 8 31.7
2020-Aug-09 17:42 188 3 gusting 8 31.7
2020-Aug-09 17:37 182 5 gusting 6 31.7
2020-Aug-09 17:32 195 5 gusting 7 31.7
2020-Aug-09 17:27 206 5 gusting 7 31.7
2020-Aug-09 17:22 198 4 gusting 6 31.7
2020-Aug-09 17:17 205 7 gusting 10 31.1
2020-Aug-09 17:12 206 5 gusting 7 31.1
2020-Aug-09 17:07 204 6 gusting 10 31.1
2020-Aug-09 17:02 180 6 gusting 8 31.1
2020-Aug-09 16:57 182 6 gusting 8 31.1
2020-Aug-09 16:52 174 5 gusting 10 31.1
2020-Aug-09 16:47 215 6 gusting 8 31.1
2020-Aug-09 16:42 216 5 gusting 8 31.1
2020-Aug-09 16:37 192 6 gusting 7 31.1
2020-Aug-09 16:32 200 6 gusting 7 31.1
2020-Aug-09 16:27 168 5 gusting 10 31.1
2020-Aug-09 16:22 173 5 gusting 7 31.1
2020-Aug-09 16:17 176 4 gusting 8 31.1
2020-Aug-09 16:12 189 3 gusting 6 30.6
2020-Aug-09 16:07 186 2 gusting 7 30.6
2020-Aug-09 16:02 204 3 gusting 6 30.6
2020-Aug-09 15:57 204 5 gusting 6 30.6
2020-Aug-09 15:52 218 4 gusting 6 30.6
2020-Aug-09 15:47 201 3 gusting 8 30.0
2020-Aug-09 15:42 199 2 gusting 6 30.0
2020-Aug-09 15:37 207 3 gusting 7 30.0
2020-Aug-09 15:32 199 6 gusting 8 29.4
2020-Aug-09 15:27 205 4 gusting 6 29.4
2020-Aug-09 15:22 206 2 gusting 6 28.9
2020-Aug-09 15:17 212 5 gusting 6 28.9
2020-Aug-09 15:12 216 2 gusting 6 28.9
2020-Aug-09 15:07 221 4 gusting 7 28.3
2020-Aug-09 15:02 195 1 gusting 5 28.3
2020-Aug-09 14:57 236 2 gusting 5 27.8
2020-Aug-09 14:52 220 2 gusting 6 27.8
2020-Aug-09 14:47 208 4 gusting 6 27.8
2020-Aug-09 14:42 226 2 gusting 5 27.8
2020-Aug-09 14:37 228 3 gusting 6 27.8
2020-Aug-09 14:32 219 4 gusting 6 27.2
2020-Aug-09 14:27 227 4 gusting 6 27.2
2020-Aug-09 14:22 213 4 gusting 6 27.2
2020-Aug-09 14:17 226 5 gusting 6 27.2
2020-Aug-09 14:12 219 4 gusting 6 26.7
2020-Aug-09 14:07 221 4 gusting 6 26.7
2020-Aug-09 14:02 221 5 gusting 8 26.7
2020-Aug-09 13:57 207 4 gusting 6 26.7
2020-Aug-09 13:52 226 3 gusting 6 26.7
2020-Aug-09 13:47 214 4 gusting 7 26.1
2020-Aug-09 13:42 224 4 gusting 5 26.1
2020-Aug-09 13:37 227 2 gusting 6 26.1
2020-Aug-09 13:32 234 3 gusting 8 26.1
2020-Aug-09 13:27 288 0 gusting 2 25.6
2020-Aug-09 13:22 252 25.6
2020-Aug-09 13:17 241 2 gusting 5 25.6
2020-Aug-09 13:12 220 3 gusting 6 25.6
2020-Aug-09 13:07 210 1 gusting 2 25.6
2020-Aug-09 13:02 213 25.6
2020-Aug-09 12:57 213 0 gusting 2 25.6
2020-Aug-09 12:52 213 1 gusting 2 25.6
2020-Aug-09 12:47 213 0 gusting 2 25.6
2020-Aug-09 12:42 213 0 gusting 1 25.6
2020-Aug-09 12:37 212 0 gusting 2 25.6
2020-Aug-09 12:32 212 0 gusting 2 25.6
2020-Aug-09 12:27 212 0 gusting 2 25.0
2020-Aug-09 12:22 206 2 gusting 4 25.0
2020-Aug-09 12:17 173 3 gusting 5 25.0
2020-Aug-09 12:12 208 4 gusting 5 25.0
2020-Aug-09 12:07 211 2 gusting 4 24.4
2020-Aug-09 12:02 218 3 gusting 5 25.0
2020-Aug-09 11:57 218 2 gusting 5 25.0
2020-Aug-09 11:52 180 1 gusting 2 24.4
2020-Aug-09 11:47 112 24.4
2020-Aug-09 11:42 112 23.9
2020-Aug-09 11:37 112 23.3
2020-Aug-09 11:32 112 23.3
2020-Aug-09 11:27 112 22.8
2020-Aug-09 11:22 112 0 gusting 0 22.8
2020-Aug-09 11:17 111 0 gusting 0 22.8
2020-Aug-09 11:12 111 22.8
2020-Aug-09 11:07 111 0 gusting 1 22.8
2020-Aug-09 11:02 111 0 gusting 1 22.8
2020-Aug-09 10:57 111 22.8
2020-Aug-09 10:52 111 22.8
2020-Aug-09 10:47 111 22.8
2020-Aug-09 10:42 111 22.8
2020-Aug-09 10:37 111 22.8
2020-Aug-09 10:32 111 0 gusting 1 22.8
2020-Aug-09 10:27 111 22.8
2020-Aug-09 10:22 111 22.8
2020-Aug-09 10:17 111 22.8
2020-Aug-09 10:12 111 22.8
2020-Aug-09 10:07 111 22.8
2020-Aug-09 10:02 111 22.8
2020-Aug-09 09:57 111 22.8
2020-Aug-09 09:52 111 22.8
2020-Aug-09 09:47 111 22.8
2020-Aug-09 09:42 111 22.8
2020-Aug-09 09:37 111 22.8
2020-Aug-09 09:32 111 0 gusting 1 22.8
2020-Aug-09 09:27 111 0 gusting 1 22.8
2020-Aug-09 09:22 111 0 gusting 1 22.8
2020-Aug-09 09:17 111 0 gusting 1 22.8
2020-Aug-09 09:12 113 22.8
2020-Aug-09 09:07 115 0 gusting 1 22.8
2020-Aug-09 09:02 144 22.8
2020-Aug-09 08:57 145 22.8
2020-Aug-09 08:52 142 22.8
2020-Aug-09 08:47 141 22.8
2020-Aug-09 08:42 141 22.8
2020-Aug-09 08:37 141 22.8
2020-Aug-09 08:32 141 22.8
2020-Aug-09 08:27 141 22.8
2020-Aug-09 08:22 141 22.8
2020-Aug-09 08:17 141 22.8
2020-Aug-09 08:12 141 22.8
2020-Aug-09 08:07 141 22.8
2020-Aug-09 08:02 141 22.8
2020-Aug-09 07:57 141 22.8
2020-Aug-09 07:52 141 22.8
2020-Aug-09 07:47 141 22.8
2020-Aug-09 07:42 141 22.8
2020-Aug-09 07:37 141 22.8
2020-Aug-09 07:32 141 22.8
2020-Aug-09 07:27 141 0 gusting 1 22.8
2020-Aug-09 07:22 141 0 gusting 2 23.3
2020-Aug-09 07:17 142 0 gusting 2 23.3
2020-Aug-09 07:12 142 23.3
2020-Aug-09 07:07 142 0 gusting 1 23.3
2020-Aug-09 07:02 142 23.3
2020-Aug-09 06:57 142 23.3
2020-Aug-09 06:52 142 1 gusting 2 23.3
2020-Aug-09 06:47 143 1 gusting 4 23.3
2020-Aug-09 06:42 134 1 gusting 2 22.8
2020-Aug-09 06:37 137 0 gusting 4 22.8
2020-Aug-09 06:32 090 22.8
2020-Aug-09 06:27 090 22.8
2020-Aug-09 06:22 090 22.8
2020-Aug-09 06:17 090 22.8
2020-Aug-09 06:12 090 22.8
2020-Aug-09 06:07 090 22.8
2020-Aug-09 06:02 090 22.8
2020-Aug-09 05:57 090 22.8
2020-Aug-09 05:52 090 22.8
2020-Aug-09 05:47 090 22.8
2020-Aug-09 05:42 090 22.8
2020-Aug-09 05:37 090 0 gusting 1 22.8
2020-Aug-09 05:32 090 0 gusting 1 22.8
2020-Aug-09 05:27 090 22.8
2020-Aug-09 05:22 090 22.8
2020-Aug-09 05:17 090 22.8
2020-Aug-09 05:12 090 22.8
2020-Aug-09 05:07 090 23.3
2020-Aug-09 05:02 090 23.3
2020-Aug-09 04:57 090 23.3
2020-Aug-09 04:52 090 23.3
2020-Aug-09 04:47 086 23.3
2020-Aug-09 04:42 085 0 gusting 2 23.3
2020-Aug-09 04:37 085 1 gusting 2 23.3
2020-Aug-09 04:32 085 23.3
2020-Aug-09 04:27 085 23.3
2020-Aug-09 04:22 085 0 gusting 1 23.3
2020-Aug-09 04:17 085 0 gusting 2 22.8
2020-Aug-09 04:12 085 0 gusting 2 22.8
2020-Aug-09 04:07 074 0 gusting 1 22.8
2020-Aug-09 04:02 074 22.8
2020-Aug-09 03:57 074 22.8
2020-Aug-09 03:52 074 22.8
2020-Aug-09 03:47 074 0 gusting 1 22.8
2020-Aug-09 03:42 074 0 gusting 1 23.3
2020-Aug-09 03:37 074 23.3
2020-Aug-09 03:32 074 23.3
2020-Aug-09 03:27 074 23.3
2020-Aug-09 03:22 074 23.3
2020-Aug-09 03:17 074 23.3
2020-Aug-09 03:12 074 2 gusting 2 23.3
2020-Aug-09 03:07 081 0 gusting 1 23.3
2020-Aug-09 03:02 081 23.3
2020-Aug-09 02:57 081 23.3
2020-Aug-09 02:52 081 23.3
2020-Aug-09 02:47 081 23.3
2020-Aug-09 02:42 082 23.3
2020-Aug-09 02:37 081 23.3
2020-Aug-09 02:32 081 23.3
2020-Aug-09 02:27 081 23.3
2020-Aug-09 02:22 081 23.9
2020-Aug-09 02:17 081 23.9
2020-Aug-09 02:12 081 23.9
2020-Aug-09 02:07 081 23.9
2020-Aug-09 02:02 081 23.9
2020-Aug-09 01:57 081 23.9
2020-Aug-09 01:52 081 23.9
2020-Aug-09 01:47 081 23.9
2020-Aug-09 01:42 081 23.9
2020-Aug-09 01:37 081 23.9
2020-Aug-09 01:32 081 23.9
2020-Aug-09 01:27 081 24.4
2020-Aug-09 01:22 081 24.4
2020-Aug-09 01:17 081 24.4
2020-Aug-09 01:12 081 24.4
2020-Aug-09 01:07 081 24.4
2020-Aug-09 01:02 077 24.4
2020-Aug-09 00:57 076 25.0
2020-Aug-09 00:52 076 25.0
2020-Aug-09 00:47 076 25.0
2020-Aug-09 00:42 076 25.0
2020-Aug-09 00:37 076 25.0
2020-Aug-09 00:32 076 25.6
2020-Aug-09 00:27 077 25.6
2020-Aug-09 00:22 076 25.6
2020-Aug-09 00:17 076 25.6
2020-Aug-09 00:12 076 26.1
2020-Aug-09 00:07 072 26.1
2020-Aug-09 00:02 072 26.1
2020-Aug-08 23:57 073 26.1
2020-Aug-08 23:52 073 26.7
2020-Aug-08 23:47 073 26.7
2020-Aug-08 23:42 073 26.7
2020-Aug-08 23:37 073 27.2
2020-Aug-08 23:32 072 27.2
2020-Aug-08 23:27 080 27.2
2020-Aug-08 23:22 079 27.2
2020-Aug-08 23:17 079 0 gusting 1 27.2
2020-Aug-08 23:12 079 27.2
2020-Aug-08 23:07 079 0 gusting 2 27.8
2020-Aug-08 23:02 079 1 gusting 2 27.8
2020-Aug-08 22:57 079 1 gusting 2 27.8
2020-Aug-08 22:52 079 1 gusting 2 27.8
2020-Aug-08 22:47 076 1 gusting 2 27.8
2020-Aug-08 22:42 075 1 gusting 2 28.3
2020-Aug-08 22:37 069 2 gusting 4 28.3
2020-Aug-08 22:32 043 1 gusting 4 28.3
2020-Aug-08 22:27 342 1 gusting 2 28.3
2020-Aug-08 22:22 020 1 gusting 2 28.9
2020-Aug-08 22:17 343 1 gusting 2 28.9
2020-Aug-08 22:12 070 1 gusting 2 29.4
2020-Aug-08 22:07 045 2 gusting 4 29.4
2020-Aug-08 22:02 021 0 gusting 5 29.4
2020-Aug-08 21:57 040 3 gusting 4 29.4
2020-Aug-08 21:52 046 2 gusting 4 29.4
2020-Aug-08 21:47 046 2 gusting 4 30.0
2020-Aug-08 21:42 030 1 gusting 6 30.0
2020-Aug-08 21:37 055 4 gusting 7 30.0
2020-Aug-08 21:32 071 4 gusting 6 30.0
2020-Aug-08 21:27 331 30.0
2020-Aug-08 21:22 330 2 gusting 4 30.0
2020-Aug-08 21:17 346 0 gusting 4 30.0
2020-Aug-08 21:12 043 2 gusting 4 30.0
2020-Aug-08 21:07 338 2 gusting 4 30.0
2020-Aug-08 21:02 344 1 gusting 2 30.0
2020-Aug-08 20:57 004 1 gusting 4 30.0
2020-Aug-08 20:52 350 1 gusting 2 30.0
2020-Aug-08 20:47 353 1 gusting 2 30.0
2020-Aug-08 20:42 355 0 gusting 2 30.0
2020-Aug-08 20:37 270 1 gusting 4 30.0
2020-Aug-08 20:32 327 2 gusting 5 30.0
2020-Aug-08 20:27 013 2 gusting 4 30.0
2020-Aug-08 20:22 30.0
2020-Aug-08 20:17 358 2 gusting 4 30.0
2020-Aug-08 20:12 327 3 gusting 6 30.0
2020-Aug-08 20:07 021 2 gusting 5 30.0
2020-Aug-08 20:02 265 0 gusting 2 29.4
2020-Aug-08 19:57 001 1 gusting 2 30.0
2020-Aug-08 19:52 041 2 gusting 5 30.0
2020-Aug-08 19:47 023 2 gusting 4 30.0
2020-Aug-08 19:42 331 3 gusting 5 29.4
2020-Aug-08 19:37 255 1 gusting 5 30.0
2020-Aug-08 19:32 352 1 gusting 5 30.0
2020-Aug-08 19:27 285 2 gusting 6 30.0
2020-Aug-08 19:22 251 0 gusting 2 29.4
2020-Aug-08 19:17 226 2 gusting 5 29.4
2020-Aug-08 19:12 240 0 gusting 4 29.4
2020-Aug-08 19:07 252 1 gusting 6 29.4
2020-Aug-08 19:02 268 3 gusting 6 29.4
2020-Aug-08 18:57 241 1 gusting 6 29.4
2020-Aug-08 18:52 323 2 gusting 6 29.4
2020-Aug-08 18:47 290 1 gusting 6 29.4
2020-Aug-08 18:42 216 1 gusting 6 29.4
2020-Aug-08 18:37 251 1 gusting 6 28.9
2020-Aug-08 18:32 289 2 gusting 6 28.9
2020-Aug-08 18:27 282 2 gusting 5 28.9
2020-Aug-08 18:22 343 1 gusting 6 28.3
2020-Aug-08 18:17 312 4 gusting 8 28.3
2020-Aug-08 18:12 336 2 gusting 5 28.3
2020-Aug-08 18:07 280 1 gusting 5 28.3
2020-Aug-08 18:02 279 4 gusting 10 28.3
2020-Aug-08 17:57 214 2 gusting 6 28.3
2020-Aug-08 17:52 341 0 gusting 2 27.8
2020-Aug-08 17:47 221 0 gusting 2 27.8
2020-Aug-08 17:42 262 0 gusting 2 27.8
2020-Aug-08 17:37 358 2 gusting 5 27.8
2020-Aug-08 17:32 324 1 gusting 5 27.8
2020-Aug-08 17:27 248 0 gusting 2 28.3
2020-Aug-08 17:22 221 3 gusting 7 28.3
2020-Aug-08 17:17 268 0 gusting 2 27.8
2020-Aug-08 17:12 280 1 gusting 2 28.3
2020-Aug-08 17:07 269 28.3
2020-Aug-08 17:02 230 1 gusting 5 27.8
2020-Aug-08 16:57 350 0 gusting 4 27.8
2020-Aug-08 16:52 050 2 gusting 4 27.8
2020-Aug-08 16:47 257 3 gusting 6 27.8
2020-Aug-08 16:42 227 3 gusting 6 27.8
2020-Aug-08 16:37 226 1 gusting 6 27.2
2020-Aug-08 16:32 314 3 gusting 6 27.2
2020-Aug-08 16:27 275 2 gusting 6 27.2
2020-Aug-08 16:22 276 0 gusting 5 27.2
2020-Aug-08 16:17 303 1 gusting 7 27.2
2020-Aug-08 16:12 329 2 gusting 6 27.2
2020-Aug-08 16:07 330 4 gusting 7 27.2
2020-Aug-08 16:02 357 4 gusting 7 27.2
2020-Aug-08 15:57 278 0 gusting 4 27.2
2020-Aug-08 15:52 224 2 gusting 5 27.2
2020-Aug-08 15:47 339 1 gusting 2 27.2
2020-Aug-08 15:42 314 4 gusting 6 27.2
2020-Aug-08 15:37 328 2 gusting 4 27.2
2020-Aug-08 15:32 331 1 gusting 4 27.2
2020-Aug-08 15:27 003 1 gusting 2 27.2
2020-Aug-08 15:22 006 2 gusting 4 27.2
2020-Aug-08 15:17 358 1 gusting 2 26.7
2020-Aug-08 15:12 011 3 gusting 5 26.7
2020-Aug-08 15:07 001 2 gusting 4 26.7
2020-Aug-08 15:02 296 2 gusting 6 26.7